Terminal Aerodrome Forecast
Issued by NWS

Home | Current Version | Previous Version | Text Only | Print | Product List | Glossary On
Versions: 1 2 3 4 5 6 7 8 9 10 11 12 13 14
000
FTAK31 PAJN 230500
TAFAPG
TAF
PAPG 230525Z 2306/2406 00000KT P6SM BKN120
     FM231000 00000KT P6SM -SHRA SCT020 BKN040 OVC060
     FM231600 00000KT P6SM VCSH BKN050 BKN100
     FM232000 06005KT P6SM BKN120
     FM240300 VRB03KT P6SM SCT040 BKN080
      AMD LTD TO CLD VIS AND WIND 2306/2315=

USA.gov is the U.S. government's official web portal to all federal, state and local government web resources and services.